Time,TemperatureF,DewpointF,PressureIn,WindDirection,WindDirectionDegrees,WindSpeedMPH,WindSpeedGustMPH,Humidity,HourlyPrecipIn,Conditions,Clouds,dailyrainin,SoftwareType,DateUTC
2013-03-14 00:02:00,47.7,46.0,30.13,NW,315,1.2,0.0,94,0.00,CLR,,0.00,WeatherDisplay:10.37,2013-03-14 07:02:00,
2013-03-14 00:07:00,47.5,45.8,30.13,South,180,1.2,0.0,94,0.00,CLR,,0.00,WeatherDisplay:10.37,2013-03-14 07:07:00,
2013-03-14 00:12:00,47.5,45.8,30.14,South,180,2.3,2.3,94,0.00,CLR,,0.00,WeatherDisplay:10.37,2013-03-14 07:12:00,
2013-03-14 00:17:00,47.5,45.8,30.13,West,270,1.2,1.2,94,0.00,CLR,,0.00,WeatherDisplay:10.37,2013-03-14 07:17:00,
2013-03-14 00:22:00,47.5,45.8,30.13,East,90,1.2,1.2,94,0.00,CLR,,0.00,WeatherDisplay:10.37,2013-03-14 07:22:00,
2013-03-14 00:27:00,47.3,45.7,30.12,SE,135,0.0,0.0,94,0.00,CLR,,0.00,WeatherDisplay:10.37,2013-03-14 07:27:00,
2013-03-14 00:32:00,47.3,45.7,30.12,East,90,2.3,0.0,94,0.00,CLR,,0.00,WeatherDisplay:10.37,2013-03-14 07:32:00,
2013-03-14 00:37:00,47.3,45.7,30.12,East,90,1.2,0.0,94,0.00,CLR,,0.00,WeatherDisplay:10.37,2013-03-14 07:37:00,
2013-03-14 00:42:00,47.5,45.8,30.12,East,90,1.2,0.0,94,0.00,CLR,,0.00,WeatherDisplay:10.37,2013-03-14 07:42:00,
2013-03-14 00:47:00,47.5,45.8,30.13,South,180,2.3,2.3,94,0.00,CLR,,0.00,WeatherDisplay:10.37,2013-03-14 07:47:00,
2013-03-14 00:53:00,47.5,45.8,30.13,South,180,1.2,0.0,94,0.00,CLR,,0.00,WeatherDisplay:10.37,2013-03-14 07:53:00,
2013-03-14 00:58:00,47.5,45.8,30.13,SW,225,1.2,1.2,94,0.00,CLR,,0.00,WeatherDisplay:10.37,2013-03-14 07:58:00,
2013-03-14 01:03:00,47.5,45.8,30.12,South,180,3.5,3.5,94,0.00,CLR,,0.00,WeatherDisplay:10.37,2013-03-14 08:03:00,
2013-03-14 01:08:00,47.3,45.7,30.13,SW,225,5.8,5.8,94,0.00,CLR,,0.00,WeatherDisplay:10.37,2013-03-14 08:08:00,
2013-03-14 01:13:00,47.1,45.5,30.12,SW,225,3.5,3.5,94,0.00,CLR,,0.00,WeatherDisplay:10.37,2013-03-14 08:13:00,
2013-03-14 01:18:00,46.9,45.6,30.12,SW,225,5.8,5.8,95,0.00,CLR,,0.00,WeatherDisplay:10.37,2013-03-14 08:18:00,
2013-03-14 01:23:00,46.9,45.6,30.11,SW,225,2.3,2.3,95,0.00,CLR,,0.00,WeatherDisplay:10.37,2013-03-14 08:23:00,
2013-03-14 01:28:00,46.9,45.6,30.11,SSW,202,3.5,3.5,95,0.00,CLR,,0.00,WeatherDisplay:10.37,2013-03-14 08:28:00,
2013-03-14 01:33:00,46.9,45.6,30.11,South,180,5.8,5.8,95,0.00,CLR,,0.00,WeatherDisplay:10.37,2013-03-14 08:33:00,
2013-03-14 01:38:00,46.8,45.4,30.10,South,180,3.5,3.5,95,0.00,CLR,,0.00,WeatherDisplay:10.37,2013-03-14 08:38:00,
2013-03-14 01:42:00,46.9,45.6,30.11,South,180,3.5,3.5,95,0.00,CLR,,0.00,WeatherDisplay:10.37,2013-03-14 08:42:00,
2013-03-14 01:48:00,46.8,45.4,30.11,South,180,3.5,3.5,95,0.00,CLR,,0.00,WeatherDisplay:10.37,2013-03-14 08:48:00,
2013-03-14 01:53:00,46.8,45.4,30.11,SW,225,5.8,5.8,95,0.00,CLR,,0.00,WeatherDisplay:10.37,2013-03-14 08:53:00,
2013-03-14 01:58:00,46.6,45.5,30.10,SW,225,3.5,3.5,96,0.00,CLR,,0.00,WeatherDisplay:10.37,2013-03-14 08:58:00,
2013-03-14 02:03:00,46.6,45.5,30.10,SW,225,5.8,5.8,96,0.00,CLR,,0.00,WeatherDisplay:10.37,2013-03-14 09:03:00,
2013-03-14 02:08:00,46.6,45.5,30.11,SW,225,5.8,5.8,96,0.00,CLR,,0.00,WeatherDisplay:10.37,2013-03-14 09:08:00,
2013-03-14 02:13:00,46.6,45.5,30.11,South,180,4.6,4.6,96,0.00,CLR,,0.00,WeatherDisplay:10.37,2013-03-14 09:13:00,
2013-03-14 02:18:00,46.6,45.5,30.11,SW,225,1.2,1.2,96,0.00,CLR,,0.00,WeatherDisplay:10.37,2013-03-14 09:18:00,
2013-03-14 02:23:00,46.6,45.5,30.11,SW,225,2.3,2.3,96,0.00,CLR,,0.00,WeatherDisplay:10.37,2013-03-14 09:23:00,
2013-03-14 02:28:00,46.6,45.5,30.11,SW,225,2.3,2.3,96,0.00,CLR,,0.00,WeatherDisplay:10.37,2013-03-14 09:28:00,
2013-03-14 02:33:00,46.6,45.5,30.11,SW,225,2.3,2.3,96,0.00,CLR,,0.00,WeatherDisplay:10.37,2013-03-14 09:33:00,
2013-03-14 02:38:00,46.4,45.3,30.12,South,180,6.9,6.9,96,0.00,CLR,,0.00,WeatherDisplay:10.37,2013-03-14 09:38:00,
2013-03-14 02:43:00,46.4,45.3,30.11,SW,225,8.1,8.1,96,0.00,CLR,,0.00,WeatherDisplay:10.37,2013-03-14 09:43:00,
2013-03-14 02:48:00,46.2,45.1,30.10,SW,225,3.5,3.5,96,0.00,CLR,,0.00,WeatherDisplay:10.37,2013-03-14 09:48:00,
2013-03-14 02:53:00,46.2,45.1,30.10,South,180,2.3,2.3,96,0.00,CLR,,0.00,WeatherDisplay:10.37,2013-03-14 09:53:00,
2013-03-14 02:58:00,46.2,45.1,30.11,South,180,1.2,1.2,96,0.00,CLR,,0.00,WeatherDisplay:10.37,2013-03-14 09:58:00,
2013-03-14 03:03:00,46.2,45.1,30.11,SW,225,3.5,3.5,96,0.00,CLR,,0.00,WeatherDisplay:10.37,2013-03-14 10:03:00,
2013-03-14 03:08:00,46.2,45.1,30.11,South,180,2.3,2.3,96,0.00,CLR,,0.00,WeatherDisplay:10.37,2013-03-14 10:08:00,
2013-03-14 03:13:00,46.2,45.1,30.10,South,180,2.3,2.3,96,0.00,CLR,,0.00,WeatherDisplay:10.37,2013-03-14 10:13:00,
2013-03-14 03:18:00,46.2,45.1,30.10,South,180,2.3,2.3,96,0.00,CLR,,0.00,WeatherDisplay:10.37,2013-03-14 10:18:00,
2013-03-14 03:23:00,46.0,45.0,30.10,South,180,3.5,3.5,96,0.00,CLR,,0.00,WeatherDisplay:10.37,2013-03-14 10:23:00,
2013-03-14 03:28:00,46.0,45.0,30.10,SSW,202,3.8,3.8,96,0.00,CLR,,0.00,WeatherDisplay:10.37,2013-03-14 10:28:00,
2013-03-14 03:33:00,46.0,45.2,30.09,South,180,4.6,0.0,97,0.00,CLR,,0.00,WeatherDisplay:10.37,2013-03-14 10:33:00,
2013-03-14 03:38:00,46.0,45.2,30.09,SW,225,4.6,4.6,97,0.00,CLR,,0.00,WeatherDisplay:10.37,2013-03-14 10:38:00,
2013-03-14 03:43:00,46.0,45.2,30.08,South,180,3.5,3.5,97,0.00,CLR,,0.00,WeatherDisplay:10.37,2013-03-14 10:43:00,
2013-03-14 03:48:00,46.0,45.2,30.08,South,180,3.5,3.5,97,0.00,CLR,,0.00,WeatherDisplay:10.37,2013-03-14 10:48:00,
2013-03-14 03:53:00,46.0,45.2,30.08,SW,225,2.3,2.3,97,0.00,CLR,,0.00,WeatherDisplay:10.37,2013-03-14 10:53:00,
2013-03-14 03:58:00,46.0,45.2,30.08,SW,225,1.2,1.2,97,0.00,CLR,,0.00,WeatherDisplay:10.37,2013-03-14 10:58:00,
2013-03-14 04:03:00,46.0,45.2,30.08,SW,225,5.8,5.8,97,0.00,CLR,,0.00,WeatherDisplay:10.37,2013-03-14 11:03:00,
2013-03-14 04:08:00,45.9,45.1,30.08,SW,225,5.8,5.8,97,0.00,CLR,,0.00,WeatherDisplay:10.37,2013-03-14 11:08:00,
2013-03-14 04:13:00,45.9,45.1,30.08,SW,225,5.8,5.8,97,0.00,CLR,,0.00,WeatherDisplay:10.37,2013-03-14 11:13:00,
2013-03-14 04:18:00,45.9,45.1,30.08,SW,225,1.2,0.0,97,0.00,CLR,,0.00,WeatherDisplay:10.37,2013-03-14 11:18:00,
2013-03-14 04:23:00,45.9,45.1,30.07,SW,225,2.3,2.3,97,0.00,CLR,,0.00,WeatherDisplay:10.37,2013-03-14 11:23:00,
2013-03-14 04:28:00,45.9,45.1,30.07,SW,225,1.2,1.2,97,0.00,CLR,,0.00,WeatherDisplay:10.37,2013-03-14 11:28:00,
2013-03-14 04:33:00,45.7,44.9,30.08,SW,225,5.8,5.8,97,0.00,CLR,,0.00,WeatherDisplay:10.37,2013-03-14 11:33:00,
2013-03-14 04:38:00,45.7,44.9,30.08,SW,225,2.3,2.3,97,0.00,CLR,,0.00,WeatherDisplay:10.37,2013-03-14 11:38:00,
2013-03-14 04:43:00,45.7,44.9,30.09,SW,225,3.5,3.5,97,0.00,CLR,,0.00,WeatherDisplay:10.37,2013-03-14 11:43:00,
2013-03-14 04:48:00,45.7,45.1,30.09,SW,225,1.2,0.0,98,0.00,CLR,,0.00,WeatherDisplay:10.37,2013-03-14 11:48:00,
2013-03-14 04:53:00,45.5,45.0,30.09,SW,225,4.5,4.5,98,0.00,CLR,,0.00,WeatherDisplay:10.37,2013-03-14 11:53:00,
2013-03-14 04:58:00,45.3,44.5,30.10,SW,225,3.5,3.5,97,0.00,CLR,,0.00,WeatherDisplay:10.37,2013-03-14 11:58:00,
2013-03-14 05:03:00,45.5,45.0,30.10,SW,225,2.2,2.2,98,0.00,CLR,,0.00,WeatherDisplay:10.37,2013-03-14 12:03:00,
2013-03-14 05:08:00,45.5,45.0,30.10,SW,225,3.5,0.0,98,0.00,CLR,,0.00,WeatherDisplay:10.37,2013-03-14 12:08:00,
2013-03-14 05:13:00,45.5,44.7,30.10,SW,225,1.2,0.0,97,0.00,CLR,,0.00,WeatherDisplay:10.37,2013-03-14 12:13:00,
2013-03-14 05:18:00,45.5,44.7,30.10,West,270,1.2,0.0,97,0.00,CLR,,0.00,WeatherDisplay:10.37,2013-03-14 12:18:00,
2013-03-14 05:23:00,45.5,45.0,30.11,SW,225,1.2,0.0,98,0.00,CLR,,0.00,WeatherDisplay:10.37,2013-03-14 12:23:00,
2013-03-14 05:28:00,45.7,45.1,30.11,South,180,2.3,0.0,98,0.00,CLR,,0.00,WeatherDisplay:10.37,2013-03-14 12:28:00,
2013-03-14 05:33:00,45.7,45.1,30.11,SW,225,5.8,5.8,98,0.00,CLR,,0.00,WeatherDisplay:10.37,2013-03-14 12:33:00,
2013-03-14 05:38:00,45.7,45.1,30.11,South,180,5.8,5.8,98,0.00,CLR,,0.00,WeatherDisplay:10.37,2013-03-14 12:38:00,
2013-03-14 05:43:00,45.9,45.3,30.11,South,180,3.5,3.5,98,0.00,CLR,,0.00,WeatherDisplay:10.37,2013-03-14 12:43:00,
2013-03-14 05:48:00,45.9,45.3,30.10,SE,135,1.2,0.0,98,0.00,CLR,,0.00,WeatherDisplay:10.37,2013-03-14 12:48:00,
2013-03-14 05:53:00,45.9,45.3,30.10,East,90,2.3,0.0,98,0.00,CLR,,0.00,WeatherDisplay:10.37,2013-03-14 12:53:00,
2013-03-14 05:58:00,45.9,45.3,30.11,South,180,2.3,2.3,98,0.00,CLR,,0.00,WeatherDisplay:10.37,2013-03-14 12:58:00,
2013-03-14 06:04:00,45.9,45.3,30.10,SE,135,1.2,0.0,98,0.00,CLR,,0.00,WeatherDisplay:10.37,2013-03-14 13:04:00,
2013-03-14 06:08:00,45.9,45.3,30.11,SE,135,1.2,0.0,98,0.00,CLR,,0.00,WeatherDisplay:10.37,2013-03-14 13:08:00,
2013-03-14 06:13:00,45.9,45.3,30.11,SSE,158,3.5,3.5,98,0.00,CLR,,0.00,WeatherDisplay:10.37,2013-03-14 13:13:00,
2013-03-14 06:19:00,45.9,45.3,30.10,SE,135,3.5,3.5,98,0.00,CLR,,0.00,WeatherDisplay:10.37,2013-03-14 13:19:00,
2013-03-14 06:23:00,45.9,45.3,30.11,South,180,3.5,3.5,98,0.00,CLR,,0.00,WeatherDisplay:10.37,2013-03-14 13:23:00,
2013-03-14 06:29:00,45.9,45.3,30.11,South,180,3.5,3.5,98,0.00,CLR,,0.00,WeatherDisplay:10.37,2013-03-14 13:29:00,
2013-03-14 06:33:00,45.9,45.3,30.11,South,180,3.5,3.5,98,0.00,CLR,,0.00,WeatherDisplay:10.37,2013-03-14 13:33:00,
2013-03-14 06:38:00,46.0,45.5,30.11,South,180,3.5,3.5,98,0.00,CLR,,0.00,WeatherDisplay:10.37,2013-03-14 13:38:00,
2013-03-14 06:43:00,45.9,45.3,30.11,SE,135,1.2,0.0,98,0.00,CLR,,0.00,WeatherDisplay:10.37,2013-03-14 13:43:00,
2013-03-14 06:48:00,46.0,45.5,30.11,South,180,3.5,3.5,98,0.00,CLR,,0.00,WeatherDisplay:10.37,2013-03-14 13:48:00,
2013-03-14 06:53:00,46.0,45.5,30.11,South,180,3.5,3.5,98,0.00,CLR,,0.00,WeatherDisplay:10.37,2013-03-14 13:53:00,
2013-03-14 06:59:00,46.0,45.5,30.11,SE,135,3.5,3.5,98,0.00,CLR,,0.00,WeatherDisplay:10.37,2013-03-14 13:59:00,
2013-03-14 07:04:00,46.0,45.5,30.10,SE,135,1.2,0.0,98,0.00,CLR,,0.00,WeatherDisplay:10.37,2013-03-14 14:04:00,
2013-03-14 07:09:00,46.0,45.5,30.11,SE,135,2.3,2.3,98,0.00,CLR,,0.00,WeatherDisplay:10.37,2013-03-14 14:09:00,
2013-03-14 07:14:00,46.2,45.7,30.11,South,180,1.2,0.0,98,0.00,CLR,,0.00,WeatherDisplay:10.37,2013-03-14 14:14:00,
2013-03-14 07:19:00,46.2,45.7,30.11,South,180,2.3,2.3,98,0.00,CLR,,0.00,WeatherDisplay:10.37,2013-03-14 14:19:00,
2013-03-14 07:24:00,46.2,45.7,30.12,South,180,3.5,3.5,98,0.00,CLR,,0.00,WeatherDisplay:10.37,2013-03-14 14:24:00,
2013-03-14 07:29:00,46.2,45.7,30.11,SE,135,1.2,0.0,98,0.00,CLR,,0.00,WeatherDisplay:10.37,2013-03-14 14:29:00,
2013-03-14 07:34:00,46.2,45.7,30.10,East,90,1.2,0.0,98,0.00,CLR,,0.00,WeatherDisplay:10.37,2013-03-14 14:34:00,
2013-03-14 07:39:00,46.2,45.7,30.11,East,90,2.3,0.0,98,0.00,CLR,,0.00,WeatherDisplay:10.37,2013-03-14 14:39:00,
2013-03-14 07:44:00,46.2,45.7,30.12,South,180,3.5,3.5,98,0.00,CLR,,0.00,WeatherDisplay:10.37,2013-03-14 14:44:00,
2013-03-14 07:49:00,46.2,45.7,30.12,SE,135,3.5,3.5,98,0.00,CLR,,0.00,WeatherDisplay:10.37,2013-03-14 14:49:00,
2013-03-14 07:54:00,46.2,45.7,30.12,South,180,3.5,0.0,98,0.00,CLR,,0.00,WeatherDisplay:10.37,2013-03-14 14:54:00,
2013-03-14 07:59:00,46.4,45.9,30.12,South,180,4.6,4.6,98,0.00,CLR,,0.00,WeatherDisplay:10.37,2013-03-14 14:59:00,
2013-03-14 08:04:00,46.6,46.0,30.12,South,180,1.2,0.0,98,0.00,CLR,,0.00,WeatherDisplay:10.37,2013-03-14 15:04:00,
2013-03-14 08:09:00,46.6,46.0,30.12,South,180,3.5,3.5,98,0.00,CLR,,0.00,WeatherDisplay:10.37,2013-03-14 15:09:00,
2013-03-14 08:14:00,46.8,46.2,30.12,SE,135,1.2,1.2,98,0.00,CLR,,0.00,WeatherDisplay:10.37,2013-03-14 15:14:00,
2013-03-14 08:19:00,46.9,46.4,30.12,South,180,3.5,3.5,98,0.00,CLR,,0.00,WeatherDisplay:10.37,2013-03-14 15:19:00,
2013-03-14 08:24:00,47.1,46.3,30.11,South,180,3.5,3.5,97,0.00,CLR,,0.00,WeatherDisplay:10.37,2013-03-14 15:24:00,
2013-03-14 08:29:00,47.3,46.5,30.12,South,180,3.5,3.5,97,0.00,CLR,,0.00,WeatherDisplay:10.37,2013-03-14 15:29:00,
2013-03-14 08:34:00,47.3,46.2,30.12,SW,225,4.6,4.6,96,0.00,CLR,,0.00,WeatherDisplay:10.37,2013-03-14 15:34:00,
2013-03-14 08:39:00,47.3,45.9,30.12,South,180,3.5,3.5,95,0.00,CLR,,0.00,WeatherDisplay:10.37,2013-03-14 15:39:00,
2013-03-14 08:44:00,47.5,46.1,30.12,SE,135,6.0,6.0,95,0.00,CLR,,0.00,WeatherDisplay:10.37,2013-03-14 15:44:00,
2013-03-14 08:49:00,47.7,46.0,30.12,South,180,3.5,3.5,94,0.00,CLR,,0.00,WeatherDisplay:10.37,2013-03-14 15:49:00,
2013-03-14 08:54:00,47.8,45.9,30.12,SE,135,5.8,5.8,93,0.00,CLR,,0.00,WeatherDisplay:10.37,2013-03-14 15:54:00,
2013-03-14 08:59:00,47.8,45.9,30.12,SSE,158,5.8,5.8,93,0.00,CLR,,0.00,WeatherDisplay:10.37,2013-03-14 15:59:00,
2013-03-14 09:04:00,47.8,45.6,30.13,SW,225,8.1,8.1,92,0.00,CLR,,0.00,WeatherDisplay:10.37,2013-03-14 16:04:00,
2013-03-14 09:09:00,48.0,45.8,30.13,South,180,5.8,5.8,92,0.00,CLR,,0.00,WeatherDisplay:10.37,2013-03-14 16:09:00,
2013-03-14 09:14:00,48.0,45.8,30.14,South,180,5.8,5.8,92,0.00,CLR,,0.00,WeatherDisplay:10.37,2013-03-14 16:14:00,
2013-03-14 09:19:00,47.8,45.3,30.13,South,180,8.1,8.1,91,0.00,CLR,,0.00,WeatherDisplay:10.37,2013-03-14 16:19:00,
2013-03-14 09:24:00,47.8,45.3,30.14,East,90,5.8,5.8,91,0.00,CLR,,0.00,WeatherDisplay:10.37,2013-03-14 16:24:00,
2013-03-14 09:29:00,47.7,45.2,30.14,South,180,5.8,5.8,91,0.00,CLR,,0.00,WeatherDisplay:10.37,2013-03-14 16:29:00,
2013-03-14 09:34:00,47.8,45.3,30.13,South,180,4.6,4.6,91,0.00,CLR,,0.00,WeatherDisplay:10.37,2013-03-14 16:34:00,
2013-03-14 09:39:00,47.8,45.3,30.14,SE,135,3.5,3.5,91,0.00,CLR,,0.00,WeatherDisplay:10.37,2013-03-14 16:39:00,
2013-03-14 09:44:00,48.0,45.5,30.14,North,0,3.5,0.0,91,0.00,CLR,,0.00,WeatherDisplay:10.37,2013-03-14 16:44:00,
2013-03-14 09:49:00,48.2,45.1,30.13,South,180,6.9,6.9,89,0.00,CLR,,0.00,WeatherDisplay:10.37,2013-03-14 16:49:00,
2013-03-14 09:54:00,48.4,45.3,30.13,South,180,5.8,5.8,89,0.00,CLR,,0.00,WeatherDisplay:10.37,2013-03-14 16:54:00,
2013-03-14 09:59:00,48.7,45.3,30.14,East,90,4.6,4.6,88,0.00,CLR,,0.00,WeatherDisplay:10.37,2013-03-14 16:59:00,
2013-03-14 10:04:00,49.1,45.4,30.14,SW,225,5.8,5.8,87,0.00,CLR,,0.00,WeatherDisplay:10.37,2013-03-14 17:04:00,
2013-03-14 10:09:00,49.5,45.8,30.15,South,180,4.6,4.6,87,0.00,CLR,,0.00,WeatherDisplay:10.37,2013-03-14 17:09:00,
2013-03-14 10:14:00,50.0,46.0,30.15,South,180,5.8,5.8,86,0.00,CLR,,0.00,WeatherDisplay:10.37,2013-03-14 17:14:00,
2013-03-14 10:19:00,50.5,46.2,30.14,South,180,3.5,3.5,85,0.00,CLR,,0.00,WeatherDisplay:10.37,2013-03-14 17:19:00,
2013-03-14 10:24:00,51.6,46.9,30.15,South,180,2.3,2.3,84,0.00,CLR,,0.00,WeatherDisplay:10.37,2013-03-14 17:24:00,
2013-03-14 10:29:00,52.3,46.4,30.15,South,180,5.8,5.8,80,0.00,CLR,,0.00,WeatherDisplay:10.37,2013-03-14 17:29:00,
2013-03-14 10:34:00,52.2,45.5,30.14,South,180,9.2,9.2,78,0.00,CLR,,0.00,WeatherDisplay:10.37,2013-03-14 17:34:00,
2013-03-14 10:39:00,52.0,46.0,30.14,South,180,5.8,5.8,80,0.00,CLR,,0.00,WeatherDisplay:10.37,2013-03-14 17:39:00,
2013-03-14 10:44:00,52.0,46.0,30.14,South,180,4.6,4.6,80,0.00,CLR,,0.00,WeatherDisplay:10.37,2013-03-14 17:44:00,
2013-03-14 10:49:00,52.0,46.0,30.14,SW,225,4.6,4.6,80,0.00,CLR,,0.00,WeatherDisplay:10.37,2013-03-14 17:49:00,
2013-03-14 10:54:00,51.6,46.0,30.15,SE,135,5.8,5.8,81,0.00,CLR,,0.00,WeatherDisplay:10.37,2013-03-14 17:54:00,
2013-03-14 10:59:00,51.6,45.7,30.14,South,180,5.8,5.8,80,0.00,CLR,,0.00,WeatherDisplay:10.37,2013-03-14 17:59:00,
2013-03-14 11:04:00,51.4,45.8,30.15,SW,225,6.9,6.9,81,0.00,CLR,,0.00,WeatherDisplay:10.37,2013-03-14 18:04:00,
2013-03-14 11:09:00,51.3,45.6,30.16,SW,225,5.8,5.8,81,0.00,CLR,,0.00,WeatherDisplay:10.37,2013-03-14 18:09:00,
2013-03-14 11:14:00,51.1,46.1,30.17,SW,225,8.1,8.1,83,0.00,CLR,,0.00,WeatherDisplay:10.37,2013-03-14 18:14:00,
2013-03-14 11:19:00,51.1,45.8,30.17,SW,225,15.0,15.0,82,0.00,CLR,,0.00,WeatherDisplay:10.37,2013-03-14 18:19:00,
2013-03-14 11:24:00,51.8,46.5,30.17,SW,225,11.5,11.5,82,0.00,CLR,,0.00,WeatherDisplay:10.37,2013-03-14 18:24:00,
2013-03-14 11:29:00,53.1,47.4,30.17,SW,225,8.1,8.1,81,0.00,CLR,,0.00,WeatherDisplay:10.37,2013-03-14 18:29:00,
2013-03-14 11:34:00,54.0,47.6,30.17,South,180,23.0,23.0,79,0.00,CLR,,0.00,WeatherDisplay:10.37,2013-03-14 18:34:00,
2013-03-14 11:39:00,54.3,47.6,30.17,SSW,202,12.7,12.7,78,0.00,CLR,,0.00,WeatherDisplay:10.37,2013-03-14 18:39:00,
2013-03-14 11:45:00,53.4,47.1,30.17,South,180,15.0,15.0,79,0.00,CLR,,0.00,WeatherDisplay:10.37,2013-03-14 18:45:00,
2013-03-14 11:50:00,53.4,47.1,30.18,SW,225,8.1,8.1,79,0.00,CLR,,0.00,WeatherDisplay:10.37,2013-03-14 18:50:00,
2013-03-14 11:55:00,53.6,46.9,30.18,South,180,11.5,11.5,78,0.00,CLR,,0.00,WeatherDisplay:10.37,2013-03-14 18:55:00,
2013-03-14 12:00:00,53.4,46.7,30.18,South,180,13.8,13.8,78,0.00,CLR,,0.00,WeatherDisplay:10.37,2013-03-14 19:00:00,
2013-03-14 12:05:00,53.6,47.2,30.17,SW,225,15.0,15.0,79,0.00,CLR,,0.00,WeatherDisplay:10.37,2013-03-14 19:05:00,
2013-03-14 12:10:00,53.8,47.1,30.18,SW,225,17.3,17.3,78,0.00,CLR,,0.00,WeatherDisplay:10.37,2013-03-14 19:10:00,
2013-03-14 12:15:00,54.5,47.4,30.18,South,180,16.8,16.8,77,0.00,CLR,,0.00,WeatherDisplay:10.37,2013-03-14 19:15:00,
2013-03-14 12:20:00,54.7,47.3,30.17,South,180,10.4,10.4,76,0.00,CLR,,0.00,WeatherDisplay:10.37,2013-03-14 19:20:00,
2013-03-14 12:25:00,54.9,46.7,30.17,South,180,16.1,16.1,74,0.00,CLR,,0.00,WeatherDisplay:10.37,2013-03-14 19:25:00,
2013-03-14 12:30:00,54.7,47.3,30.17,SW,225,15.0,15.0,76,0.00,CLR,,0.00,WeatherDisplay:10.37,2013-03-14 19:30:00,
2013-03-14 12:35:00,55.8,47.6,30.17,SW,225,15.0,15.0,74,0.00,CLR,,0.00,WeatherDisplay:10.37,2013-03-14 19:35:00,
2013-03-14 12:40:00,56.3,47.8,30.18,SW,225,17.3,17.3,73,0.00,CLR,,0.00,WeatherDisplay:10.37,2013-03-14 19:40:00,
2013-03-14 12:45:00,57.2,47.1,30.18,SW,225,19.6,19.6,69,0.00,CLR,,0.00,WeatherDisplay:10.37,2013-03-14 19:45:00,
2013-03-14 12:50:00,56.7,46.6,30.17,South,180,20.7,20.7,69,0.00,CLR,,0.00,WeatherDisplay:10.37,2013-03-14 19:50:00,
2013-03-14 12:55:00,56.5,47.2,30.17,SW,225,18.4,18.4,71,0.00,CLR,,0.00,WeatherDisplay:10.37,2013-03-14 19:55:00,
2013-03-14 13:00:00,57.9,46.2,30.17,SW,225,15.2,15.2,65,0.00,CLR,,0.00,WeatherDisplay:10.37,2013-03-14 20:00:00,
2013-03-14 13:05:00,58.3,47.4,30.17,SE,135,16.1,16.1,67,0.00,CLR,,0.00,WeatherDisplay:10.37,2013-03-14 20:05:00,
2013-03-14 13:10:00,59.2,47.4,30.17,South,180,12.7,12.7,65,0.00,CLR,,0.00,WeatherDisplay:10.37,2013-03-14 20:10:00,
2013-03-14 13:15:00,59.5,47.8,30.17,South,180,12.7,12.7,65,0.00,CLR,,0.00,WeatherDisplay:10.37,2013-03-14 20:15:00,
2013-03-14 13:20:00,59.7,47.5,30.18,West,270,8.1,8.1,64,0.00,CLR,,0.00,WeatherDisplay:10.37,2013-03-14 20:20:00,
2013-03-14 13:25:00,58.5,47.1,30.18,South,180,17.3,17.3,66,0.00,CLR,,0.00,WeatherDisplay:10.37,2013-03-14 20:25:00,
2013-03-14 13:30:00,58.8,47.1,30.17,SW,225,11.5,11.5,65,0.00,CLR,,0.00,WeatherDisplay:10.37,2013-03-14 20:30:00,
2013-03-14 13:35:00,59.4,47.2,30.17,SSW,202,12.7,12.7,64,0.00,CLR,,0.00,WeatherDisplay:10.37,2013-03-14 20:35:00,
2013-03-14 13:40:00,58.8,46.7,30.17,SW,225,10.4,10.4,64,0.00,CLR,,0.00,WeatherDisplay:10.37,2013-03-14 20:40:00,
2013-03-14 13:45:00,58.6,46.9,30.17,South,180,10.4,10.4,65,0.00,CLR,,0.00,WeatherDisplay:10.37,2013-03-14 20:45:00,
2013-03-14 13:50:00,59.7,47.1,30.17,South,180,11.5,11.5,63,0.00,CLR,,0.00,WeatherDisplay:10.37,2013-03-14 20:50:00,
2013-03-14 13:55:00,61.0,47.9,30.17,South,180,10.4,10.4,62,0.00,CLR,,0.00,WeatherDisplay:10.37,2013-03-14 20:55:00,
2013-03-14 14:00:00,60.3,47.2,30.16,SW,225,15.0,15.0,62,0.00,CLR,,0.00,WeatherDisplay:10.37,2013-03-14 21:00:00,
2013-03-14 14:05:00,60.1,47.0,30.15,South,180,17.3,17.3,62,0.00,CLR,,0.00,WeatherDisplay:10.37,2013-03-14 21:05:00,
2013-03-14 14:10:00,60.3,46.8,30.15,SW,225,15.0,15.0,61,0.00,CLR,,0.00,WeatherDisplay:10.37,2013-03-14 21:10:00,
2013-03-14 14:15:00,60.6,47.5,30.15,SW,225,8.1,8.1,62,0.00,CLR,,0.00,WeatherDisplay:10.37,2013-03-14 21:15:00,
2013-03-14 14:20:00,60.6,47.1,30.15,SW,225,17.3,17.3,61,0.00,CLR,,0.00,WeatherDisplay:10.37,2013-03-14 21:20:00,
2013-03-14 14:25:00,61.2,47.2,30.14,South,180,14.5,14.5,60,0.00,CLR,,0.00,WeatherDisplay:10.37,2013-03-14 21:25:00,
2013-03-14 14:30:00,61.0,47.9,30.14,SW,225,13.8,13.8,62,0.00,CLR,,0.00,WeatherDisplay:10.37,2013-03-14 21:30:00,
2013-03-14 14:35:00,62.8,49.6,30.14,South,180,9.2,9.2,62,0.00,CLR,,0.00,WeatherDisplay:10.37,2013-03-14 21:35:00,
2013-03-14 14:40:00,62.6,48.5,30.14,SW,225,6.9,6.9,60,0.00,CLR,,0.00,WeatherDisplay:10.37,2013-03-14 21:40:00,
2013-03-14 14:45:00,63.1,48.6,30.14,SW,225,8.1,8.1,59,0.00,CLR,,0.00,WeatherDisplay:10.37,2013-03-14 21:45:00,
2013-03-14 14:50:00,63.5,50.2,30.14,South,180,12.7,12.7,62,0.00,CLR,,0.00,WeatherDisplay:10.37,2013-03-14 21:50:00,
2013-03-14 14:55:00,64.2,48.2,30.13,South,180,12.7,12.7,56,0.00,CLR,,0.00,WeatherDisplay:10.37,2013-03-14 21:55:00,
2013-03-14 15:00:00,65.5,48.9,30.13,SE,135,9.2,9.2,55,0.00,CLR,,0.00,WeatherDisplay:10.37,2013-03-14 22:00:00,
2013-03-14 15:05:00,66.2,48.6,30.13,SW,225,8.1,8.1,53,0.00,CLR,,0.00,WeatherDisplay:10.37,2013-03-14 22:05:00,
2013-03-14 15:10:00,66.0,47.4,30.13,SW,225,10.4,10.4,51,0.00,CLR,,0.00,WeatherDisplay:10.37,2013-03-14 22:10:00,
2013-03-14 15:15:00,66.9,48.2,30.13,SW,225,16.1,16.1,51,0.00,CLR,,0.00,WeatherDisplay:10.37,2013-03-14 22:15:00,
2013-03-14 15:20:00,66.9,48.7,30.14,SW,225,11.5,11.5,52,0.00,CLR,,0.00,WeatherDisplay:10.37,2013-03-14 22:20:00,
2013-03-14 15:25:00,65.8,46.7,30.14,South,180,12.7,16.8,50,0.00,CLR,,0.00,WeatherDisplay:10.37,2013-03-14 22:25:00,
2013-03-14 15:30:00,63.3,47.3,30.14,West,270,10.4,10.4,56,0.00,CLR,,0.00,WeatherDisplay:10.37,2013-03-14 22:30:00,
2013-03-14 15:35:00,62.8,48.2,30.14,West,270,12.7,12.7,59,0.00,CLR,,0.00,WeatherDisplay:10.37,2013-03-14 22:35:00,
2013-03-14 15:40:00,62.4,47.9,30.15,SW,225,13.8,13.8,59,0.00,CLR,,0.00,WeatherDisplay:10.37,2013-03-14 22:40:00,
2013-03-14 15:45:00,61.7,48.5,30.15,SSW,202,10.4,10.4,62,0.00,CLR,,0.00,WeatherDisplay:10.37,2013-03-14 22:45:00,
2013-03-14 15:50:00,61.7,48.5,30.15,NW,315,6.9,6.9,62,0.00,CLR,,0.00,WeatherDisplay:10.37,2013-03-14 22:50:00,
2013-03-14 15:55:00,61.3,48.2,30.16,SW,225,4.6,4.6,62,0.00,CLR,,0.00,WeatherDisplay:10.37,2013-03-14 22:55:00,
2013-03-14 16:00:00,60.6,48.4,30.16,South,180,12.7,12.7,64,0.00,CLR,,0.00,WeatherDisplay:10.37,2013-03-14 23:00:00,
2013-03-14 16:05:00,60.4,48.2,30.16,SW,225,10.4,10.4,64,0.00,CLR,,0.00,WeatherDisplay:10.37,2013-03-14 23:05:00,
2013-03-14 16:10:00,60.1,48.3,30.17,SW,225,13.8,13.8,65,0.00,CLR,,0.00,WeatherDisplay:10.37,2013-03-14 23:10:00,
2013-03-14 16:16:00,59.7,47.9,30.17,SW,225,9.2,9.2,65,0.00,CLR,,0.00,WeatherDisplay:10.37,2013-03-14 23:16:00,
2013-03-14 16:21:00,59.7,48.3,30.17,SW,225,10.4,10.4,66,0.00,CLR,,0.00,WeatherDisplay:10.37,2013-03-14 23:21:00,
2013-03-14 16:26:00,59.7,47.9,30.17,North,0,9.2,9.2,65,0.00,CLR,,0.00,WeatherDisplay:10.37,2013-03-14 23:26:00,
2013-03-14 16:31:00,59.0,48.1,30.17,SW,225,10.4,10.4,67,0.00,CLR,,0.00,WeatherDisplay:10.37,2013-03-14 23:31:00,
2013-03-14 16:36:00,58.3,47.8,30.18,SW,225,11.5,11.5,68,0.00,CLR,,0.00,WeatherDisplay:10.37,2013-03-14 23:36:00,
2013-03-14 16:41:00,57.7,47.6,30.18,South,180,12.7,12.7,69,0.00,CLR,,0.00,WeatherDisplay:10.37,2013-03-14 23:41:00,
2013-03-14 16:46:00,57.2,47.9,30.17,SW,225,4.6,4.6,71,0.00,CLR,,0.00,WeatherDisplay:10.37,2013-03-14 23:46:00,
2013-03-14 16:51:00,56.3,47.4,30.18,South,180,15.0,15.0,72,0.00,CLR,,0.00,WeatherDisplay:10.37,2013-03-14 23:51:00,
2013-03-14 16:57:00,55.8,47.2,30.18,SW,225,12.7,12.7,73,0.00,CLR,,0.00,WeatherDisplay:10.37,2013-03-14 23:57:00,
2013-03-14 17:02:00,55.4,47.6,30.18,SW,225,10.4,10.4,75,0.00,CLR,,0.00,WeatherDisplay:10.37,2013-03-15 00:02:00,
2013-03-14 17:07:00,55.2,47.4,30.18,South,180,9.2,9.2,75,0.00,CLR,,0.00,WeatherDisplay:10.37,2013-03-15 00:07:00,
2013-03-14 17:12:00,55.0,47.3,30.18,SW,225,8.1,8.1,75,0.00,CLR,,0.00,WeatherDisplay:10.37,2013-03-15 00:12:00,
2013-03-14 17:17:00,55.0,47.6,30.17,SW,225,8.1,8.1,76,0.00,CLR,,0.00,WeatherDisplay:10.37,2013-03-15 00:17:00,
2013-03-14 17:22:00,55.0,47.3,30.17,West,270,6.9,6.9,75,0.00,CLR,,0.00,WeatherDisplay:10.37,2013-03-15 00:22:00,
2013-03-14 17:27:00,55.0,47.3,30.17,South,180,12.7,12.7,75,0.00,CLR,,0.00,WeatherDisplay:10.37,2013-03-15 00:27:00,
2013-03-14 17:32:00,55.2,47.8,30.17,SW,225,6.9,6.9,76,0.00,CLR,,0.00,WeatherDisplay:10.37,2013-03-15 00:32:00,
2013-03-14 17:37:00,55.2,47.4,30.17,SW,225,8.3,8.3,75,0.00,CLR,,0.00,WeatherDisplay:10.37,2013-03-15 00:37:00,
2013-03-14 17:42:00,55.4,48.0,30.17,SW,225,9.2,9.2,76,0.00,CLR,,0.00,WeatherDisplay:10.37,2013-03-15 00:42:00,
2013-03-14 17:47:00,55.4,47.6,30.17,SW,225,12.7,12.7,75,0.00,CLR,,0.00,WeatherDisplay:10.37,2013-03-15 00:47:00,
2013-03-14 17:52:00,55.6,47.8,30.17,SW,225,12.7,12.7,75,0.00,CLR,,0.00,WeatherDisplay:10.37,2013-03-15 00:52:00,
2013-03-14 17:57:00,55.6,47.4,30.17,SW,225,13.8,13.8,74,0.00,CLR,,0.00,WeatherDisplay:10.37,2013-03-15 00:57:00,
2013-03-14 18:02:00,55.8,48.0,30.17,SW,225,11.5,11.5,75,0.00,CLR,,0.00,WeatherDisplay:10.37,2013-03-15 01:02:00,
2013-03-14 18:07:00,55.8,48.0,30.17,South,180,8.1,8.1,75,0.00,CLR,,0.00,WeatherDisplay:10.37,2013-03-15 01:07:00,
2013-03-14 18:12:00,55.8,47.6,30.17,SW,225,10.4,10.4,74,0.00,CLR,,0.00,WeatherDisplay:10.37,2013-03-15 01:12:00,
2013-03-14 18:18:00,55.8,48.0,30.17,SW,225,3.5,3.5,75,0.00,CLR,,0.00,WeatherDisplay:10.37,2013-03-15 01:18:00,
2013-03-14 18:23:00,55.6,47.8,30.17,SSW,202,4.6,4.6,75,0.00,CLR,,0.00,WeatherDisplay:10.37,2013-03-15 01:23:00,
2013-03-14 18:28:00,55.4,48.0,30.17,SW,225,5.8,5.8,76,0.00,CLR,,0.00,WeatherDisplay:10.37,2013-03-15 01:28:00,
2013-03-14 18:33:00,55.2,47.8,30.17,SSW,202,8.1,8.1,76,0.00,CLR,,0.00,WeatherDisplay:10.37,2013-03-15 01:33:00,
2013-03-14 18:38:00,55.2,47.8,30.17,SW,225,6.9,6.9,76,0.00,CLR,,0.00,WeatherDisplay:10.37,2013-03-15 01:38:00,
2013-03-14 18:43:00,55.2,48.1,30.17,SW,225,4.6,4.6,77,0.00,CLR,,0.00,WeatherDisplay:10.37,2013-03-15 01:43:00,
2013-03-14 18:48:00,55.2,47.8,30.18,SW,225,5.8,5.8,76,0.00,CLR,,0.00,WeatherDisplay:10.37,2013-03-15 01:48:00,
2013-03-14 18:53:00,55.2,48.1,30.18,SW,225,4.6,4.6,77,0.00,CLR,,0.00,WeatherDisplay:10.37,2013-03-15 01:53:00,
2013-03-14 18:58:00,55.2,48.1,30.18,SW,225,5.8,5.8,77,0.00,CLR,,0.00,WeatherDisplay:10.37,2013-03-15 01:58:00,
2013-03-14 19:03:00,55.0,48.0,30.18,SW,225,4.6,0.0,77,0.00,CLR,,0.00,WeatherDisplay:10.37,2013-03-15 02:03:00,
2013-03-14 19:08:00,55.0,48.0,30.18,SW,225,1.2,0.0,77,0.00,CLR,,0.00,WeatherDisplay:10.37,2013-03-15 02:08:00,
2013-03-14 19:13:00,55.0,48.0,30.18,SW,225,2.3,2.3,77,0.00,CLR,,0.00,WeatherDisplay:10.37,2013-03-15 02:13:00,
2013-03-14 19:18:00,54.9,48.1,30.18,SW,225,2.3,2.3,78,0.00,CLR,,0.00,WeatherDisplay:10.37,2013-03-15 02:18:00,
2013-03-14 19:23:00,54.9,48.1,30.18,West,270,1.2,0.0,78,0.00,CLR,,0.00,WeatherDisplay:10.37,2013-03-15 02:23:00,
2013-03-14 19:28:00,54.7,48.0,30.18,West,270,1.2,0.0,78,0.00,CLR,,0.00,WeatherDisplay:10.37,2013-03-15 02:28:00,
2013-03-14 19:33:00,54.5,47.8,30.18,SW,225,1.2,0.0,78,0.00,CLR,,0.00,WeatherDisplay:10.37,2013-03-15 02:33:00,
2013-03-14 19:38:00,54.3,47.9,30.18,West,270,1.2,0.0,79,0.00,CLR,,0.00,WeatherDisplay:10.37,2013-03-15 02:38:00,
2013-03-14 19:43:00,54.3,47.9,30.18,SW,225,1.2,0.0,79,0.00,CLR,,0.00,WeatherDisplay:10.37,2013-03-15 02:43:00,
2013-03-14 19:48:00,54.1,47.8,30.19,NW,315,2.3,0.0,79,0.00,CLR,,0.00,WeatherDisplay:10.37,2013-03-15 02:48:00,
2013-03-14 19:53:00,54.1,47.8,30.19,South,180,2.3,0.0,79,0.00,CLR,,0.00,WeatherDisplay:10.37,2013-03-15 02:53:00,
2013-03-14 19:58:00,54.0,47.6,30.18,SW,225,4.6,4.6,79,0.00,CLR,,0.00,WeatherDisplay:10.37,2013-03-15 02:58:00,
2013-03-14 20:03:00,54.0,47.6,30.18,SW,225,3.5,3.5,79,0.00,CLR,,0.00,WeatherDisplay:10.37,2013-03-15 03:03:00,
2013-03-14 20:08:00,53.8,47.8,30.18,SW,225,3.5,3.5,80,0.00,CLR,,0.00,WeatherDisplay:10.37,2013-03-15 03:08:00,
2013-03-14 20:13:00,53.8,47.8,30.19,SW,225,2.3,2.3,80,0.00,CLR,,0.00,WeatherDisplay:10.37,2013-03-15 03:13:00,
2013-03-14 20:18:00,53.8,47.8,30.19,SW,225,3.5,3.5,80,0.00,CLR,,0.00,WeatherDisplay:10.37,2013-03-15 03:18:00,
2013-03-14 20:23:00,53.8,47.8,30.19,SW,225,6.9,6.9,80,0.00,CLR,,0.00,WeatherDisplay:10.37,2013-03-15 03:23:00,
2013-03-14 20:28:00,54.0,47.6,30.19,SW,225,9.2,9.2,79,0.00,CLR,,0.00,WeatherDisplay:10.37,2013-03-15 03:28:00,
2013-03-14 20:33:00,54.0,47.6,30.19,SSW,202,3.5,3.5,79,0.00,CLR,,0.00,WeatherDisplay:10.37,2013-03-15 03:33:00,
2013-03-14 20:38:00,53.8,47.4,30.19,SSW,202,4.6,0.0,79,0.00,CLR,,0.00,WeatherDisplay:10.37,2013-03-15 03:38:00,
2013-03-14 20:43:00,53.8,47.8,30.19,SW,225,4.6,4.6,80,0.00,CLR,,0.00,WeatherDisplay:10.37,2013-03-15 03:43:00,
2013-03-14 20:48:00,53.8,47.8,30.19,SW,225,1.2,1.2,80,0.00,CLR,,0.00,WeatherDisplay:10.37,2013-03-15 03:48:00,
2013-03-14 20:53:00,53.6,47.6,30.19,SW,225,2.3,2.3,80,0.00,CLR,,0.00,WeatherDisplay:10.37,2013-03-15 03:53:00,
2013-03-14 20:58:00,53.6,47.6,30.19,SSW,202,1.2,1.2,80,0.00,CLR,,0.00,WeatherDisplay:10.37,2013-03-15 03:58:00,
2013-03-14 21:00:00,53.6,47.6,30.19,SW,225,3.5,0.0,80,0.00,CLR,,0.00,WeatherDisplay:10.37,2013-03-15 04:00:00,
2013-03-14 21:05:00,53.4,47.4,30.19,South,180,1.2,0.0,80,0.00,CLR,,0.00,WeatherDisplay:10.37,2013-03-15 04:05:00,
2013-03-14 21:10:00,53.4,47.4,30.19,SSW,202,2.3,0.0,80,0.00,CLR,,0.00,WeatherDisplay:10.37,2013-03-15 04:10:00,
2013-03-14 21:15:00,53.4,47.7,30.20,SW,225,2.3,2.3,81,0.00,CLR,,0.00,WeatherDisplay:10.37,2013-03-15 04:15:00,
2013-03-14 21:20:00,53.4,47.7,30.20,SW,225,1.2,1.2,81,0.00,CLR,,0.00,WeatherDisplay:10.37,2013-03-15 04:20:00,
2013-03-14 21:25:00,53.4,47.7,30.19,SW,225,1.2,0.0,81,0.00,CLR,,0.00,WeatherDisplay:10.37,2013-03-15 04:25:00,
2013-03-14 21:30:00,53.4,47.7,30.19,NW,315,1.2,0.0,81,0.00,CLR,,0.00,WeatherDisplay:10.37,2013-03-15 04:30:00,
2013-03-14 21:35:00,53.4,47.7,30.19,NW,315,1.2,0.0,81,0.00,CLR,,0.00,WeatherDisplay:10.37,2013-03-15 04:35:00,
2013-03-14 21:40:00,53.4,47.7,30.19,NW,315,1.2,0.0,81,0.00,CLR,,0.00,WeatherDisplay:10.37,2013-03-15 04:40:00,
2013-03-14 21:45:00,53.4,47.7,30.20,NW,315,1.2,0.0,81,0.00,CLR,,0.00,WeatherDisplay:10.37,2013-03-15 04:45:00,
2013-03-14 21:50:00,53.2,47.6,30.20,NW,315,1.2,0.0,81,0.00,CLR,,0.00,WeatherDisplay:10.37,2013-03-15 04:50:00,
2013-03-14 21:55:00,53.2,47.9,30.21,SW,225,0.0,0.0,82,0.00,CLR,,0.00,WeatherDisplay:10.37,2013-03-15 04:55:00,
2013-03-14 22:00:00,53.1,48.0,30.21,SW,225,3.5,0.0,83,0.00,CLR,,0.00,WeatherDisplay:10.37,2013-03-15 05:00:00,
2013-03-14 22:05:00,52.9,47.9,30.21,SW,225,1.2,0.0,83,0.00,CLR,,0.00,WeatherDisplay:10.37,2013-03-15 05:05:00,
2013-03-14 22:10:00,52.9,47.9,30.21,SW,225,3.8,3.8,83,0.00,CLR,,0.00,WeatherDisplay:10.37,2013-03-15 05:10:00,
2013-03-14 22:15:00,52.9,47.9,30.21,SW,225,1.2,0.0,83,0.00,CLR,,0.00,WeatherDisplay:10.37,2013-03-15 05:15:00,
2013-03-14 22:20:00,52.7,47.7,30.21,East,90,1.6,0.0,83,0.00,CLR,,0.00,WeatherDisplay:10.37,2013-03-15 05:20:00,
2013-03-14 22:25:00,52.7,47.7,30.21,South,180,2.3,2.3,83,0.00,CLR,,0.00,WeatherDisplay:10.37,2013-03-15 05:25:00,
2013-03-14 22:30:00,52.7,47.7,30.21,East,90,1.2,0.0,83,0.00,CLR,,0.00,WeatherDisplay:10.37,2013-03-15 05:30:00,
2013-03-14 22:35:00,52.5,47.5,30.22,NE,45,0.0,0.0,83,0.00,CLR,,0.00,WeatherDisplay:10.37,2013-03-15 05:35:00,
2013-03-14 22:40:00,52.5,47.5,30.22,SE,135,1.2,0.0,83,0.00,CLR,,0.00,WeatherDisplay:10.37,2013-03-15 05:40:00,
2013-03-14 22:45:00,52.5,47.5,30.22,SE,135,2.3,2.3,83,0.00,CLR,,0.00,WeatherDisplay:10.37,2013-03-15 05:45:00,
2013-03-14 22:50:00,52.5,47.5,30.22,NE,45,1.2,0.0,83,0.00,CLR,,0.00,WeatherDisplay:10.37,2013-03-15 05:50:00,
2013-03-14 22:55:00,52.5,47.5,30.21,SW,225,2.3,2.3,83,0.00,CLR,,0.00,WeatherDisplay:10.37,2013-03-15 05:55:00,
2013-03-14 23:00:00,52.5,47.5,30.22,SW,225,2.3,2.3,83,0.00,CLR,,0.00,WeatherDisplay:10.37,2013-03-15 06:00:00,
2013-03-14 23:05:00,52.5,47.5,30.22,West,270,2.3,0.0,83,0.00,CLR,,0.00,WeatherDisplay:10.37,2013-03-15 06:05:00,
2013-03-14 23:10:00,52.7,47.7,30.22,SW,225,1.2,1.2,83,0.00,CLR,,0.00,WeatherDisplay:10.37,2013-03-15 06:10:00,
2013-03-14 23:15:00,52.7,47.7,30.22,South,180,2.3,2.3,83,0.00,CLR,,0.00,WeatherDisplay:10.37,2013-03-15 06:15:00,
2013-03-14 23:20:00,52.5,47.8,30.22,South,180,1.2,0.0,84,0.00,CLR,,0.00,WeatherDisplay:10.37,2013-03-15 06:20:00,
2013-03-14 23:25:00,52.3,47.6,30.23,SW,225,2.2,2.2,84,0.00,CLR,,0.00,WeatherDisplay:10.37,2013-03-15 06:25:00,
2013-03-14 23:30:00,52.3,47.6,30.22,SW,225,1.2,1.2,84,0.00,CLR,,0.00,WeatherDisplay:10.37,2013-03-15 06:30:00,
2013-03-14 23:35:00,52.3,47.6,30.22,South,180,2.3,0.0,84,0.00,CLR,,0.00,WeatherDisplay:10.37,2013-03-15 06:35:00,
2013-03-14 23:40:00,52.3,47.6,30.22,West,270,0.0,0.0,84,0.00,CLR,,0.00,WeatherDisplay:10.37,2013-03-15 06:40:00,
2013-03-14 23:45:00,52.3,48.0,30.22,South,180,2.3,2.3,85,0.00,CLR,,0.00,WeatherDisplay:10.37,2013-03-15 06:45:00,
2013-03-14 23:50:00,52.2,47.8,30.22,South,180,3.5,3.5,85,0.00,CLR,,0.00,WeatherDisplay:10.37,2013-03-15 06:50:00,
2013-03-14 23:55:00,52.2,48.1,30.22,South,180,2.3,2.3,86,0.00,CLR,,0.00,WeatherDisplay:10.37,2013-03-15 06:55:00,